createdAt,value
2022-12-11T00:02:13.224Z,3.20
2022-12-11T00:04:40.814Z,3.20
2022-12-11T00:07:07.686Z,3.70
2022-12-11T00:09:35.037Z,3.45
2022-12-11T00:12:02.539Z,4.22
2022-12-11T00:14:29.781Z,3.30
2022-12-11T00:16:58.134Z,4.05
2022-12-11T00:19:25.399Z,4.53
2022-12-11T00:21:52.296Z,3.83
2022-12-11T00:24:19.884Z,3.67
2022-12-11T00:26:46.788Z,3.38
2022-12-11T00:29:14.710Z,3.95
2022-12-11T00:31:42.206Z,3.83
2022-12-11T00:34:12.118Z,4.38
2022-12-11T00:36:39.843Z,3.55
2022-12-11T00:39:07.288Z,3.70
2022-12-11T00:41:36.164Z,3.83
2022-12-11T00:44:09.954Z,3.50
2022-12-11T00:46:39.459Z,3.60
2022-12-11T00:49:09.403Z,3.55
2022-12-11T00:51:39.816Z,3.92
2022-12-11T00:54:07.436Z,4.07
2022-12-11T00:56:34.385Z,3.70
2022-12-11T00:59:04.269Z,3.60
2022-12-11T01:01:59.989Z,3.60
2022-12-11T01:04:27.541Z,4.10
2022-12-11T01:06:56.032Z,3.92
2022-12-11T01:09:41.823Z,3.97
2022-12-11T01:12:11.866Z,2.42
2022-12-11T01:14:39.707Z,2.95
2022-12-11T01:17:06.586Z,2.53
2022-12-11T01:19:33.783Z,2.92
2022-12-11T01:22:02.028Z,2.90
2022-12-11T01:24:29.507Z,2.30
2022-12-11T01:26:56.471Z,2.70
2022-12-11T01:29:23.749Z,2.85
2022-12-11T01:31:50.707Z,2.67
2022-12-11T01:34:17.936Z,2.80
2022-12-11T01:36:45.013Z,2.35
2022-12-11T01:39:15.910Z,2.20
2022-12-11T01:41:44.676Z,2.38
2022-12-11T01:46:55.532Z,1.77
2022-12-11T01:49:27.262Z,1.90
2022-12-11T01:51:59.259Z,2.20
2022-12-11T01:54:29.638Z,1.88
2022-12-11T01:57:00.381Z,1.70
2022-12-11T01:59:58.985Z,1.45
2022-12-11T02:02:29.465Z,1.50
2022-12-11T02:04:57.239Z,1.58
2022-12-11T02:07:24.294Z,1.40
2022-12-11T02:09:55.255Z,1.40
2022-12-11T02:12:30.628Z,1.55
2022-12-11T02:15:05.521Z,1.80
2022-12-11T02:17:38.955Z,1.17
2022-12-11T02:20:12.194Z,1.17
2022-12-11T02:22:58.924Z,1.10
2022-12-11T02:25:33.022Z,0.90
2022-12-11T02:28:21.173Z,0.82
2022-12-11T02:30:52.534Z,0.80
2022-12-11T02:33:26.141Z,1.10
2022-12-11T02:35:54.476Z,0.90
2022-12-11T02:38:27.148Z,1.00
2022-12-11T02:40:58.194Z,1.10
2022-12-11T02:43:31.384Z,1.00
2022-12-11T02:46:03.135Z,1.33
2022-12-11T02:50:59.585Z,0.98
2022-12-11T02:53:31.244Z,1.50
2022-12-11T02:56:03.765Z,1.30
2022-12-11T02:58:34.369Z,1.50
2022-12-11T03:01:01.728Z,1.40
2022-12-11T03:03:30.844Z,1.42
2022-12-11T03:05:58.098Z,1.20
2022-12-11T03:08:29.304Z,1.30
2022-12-11T03:10:56.728Z,1.27
2022-12-11T03:13:23.767Z,0.88
2022-12-11T03:16:05.012Z,1.40
2022-12-11T03:18:36.339Z,0.88
2022-12-11T03:21:07.876Z,0.80
2022-12-11T03:23:45.719Z,0.50
2022-12-11T03:26:15.197Z,0.43
2022-12-11T03:31:17.499Z,0.50
2022-12-11T03:33:48.126Z,0.45
2022-12-11T03:36:21.208Z,0.63
2022-12-11T03:38:52.814Z,0.50
2022-12-11T03:41:24.812Z,0.50
2022-12-11T03:43:54.480Z,0.52
2022-12-11T03:46:28.129Z,0.70
2022-12-11T03:48:59.298Z,0.50
2022-12-11T03:51:29.086Z,0.70
2022-12-11T03:53:56.424Z,0.80
2022-12-11T03:56:25.594Z,0.70
2022-12-11T03:58:52.688Z,0.52
2022-12-11T04:01:20.315Z,0.60
2022-12-11T04:03:48.829Z,0.60
2022-12-11T04:06:16.103Z,0.60
2022-12-11T04:08:43.013Z,0.50
2022-12-11T04:11:29.299Z,0.50
2022-12-11T04:14:16.165Z,0.80
2022-12-11T04:16:45.022Z,0.65
2022-12-11T04:19:31.689Z,0.65
2022-12-11T04:22:17.518Z,0.60
2022-12-11T04:24:44.453Z,0.70
2022-12-11T04:27:11.701Z,0.77
2022-12-11T04:29:38.687Z,0.70
2022-12-11T04:32:05.996Z,0.80
2022-12-11T04:34:34.347Z,0.47
2022-12-11T04:37:03.789Z,0.70
2022-12-11T04:39:30.679Z,0.50
2022-12-11T04:41:58.944Z,0.68
2022-12-11T04:44:25.988Z,0.60
2022-12-11T04:46:53.132Z,0.95
2022-12-11T04:49:20.005Z,0.70
2022-12-11T04:51:48.968Z,0.63
2022-12-11T04:54:16.521Z,0.85
2022-12-11T04:56:43.652Z,0.90
2022-12-11T04:59:11.211Z,0.70
2022-12-11T05:01:43.235Z,0.70
2022-12-11T05:04:10.202Z,0.60
2022-12-11T05:06:40.094Z,0.70
2022-12-11T05:09:10.975Z,0.50
2022-12-11T05:11:38.472Z,0.60
2022-12-11T05:14:05.469Z,0.60
2022-12-11T05:16:32.628Z,0.63
2022-12-11T05:18:59.542Z,0.85
2022-12-11T05:21:30.316Z,0.80
2022-12-11T05:24:01.947Z,0.70
2022-12-11T05:26:30.636Z,0.50
2022-12-11T05:28:57.667Z,0.63
2022-12-11T05:31:29.673Z,0.60
2022-12-11T05:33:56.615Z,0.50
2022-12-11T05:36:26.467Z,0.65
2022-12-11T05:38:53.428Z,0.70
2022-12-11T05:41:23.017Z,0.70
2022-12-11T05:43:52.026Z,0.65
2022-12-11T05:46:22.619Z,0.80
2022-12-11T05:48:51.009Z,0.73
2022-12-11T05:51:18.770Z,0.60
2022-12-11T05:53:49.173Z,0.75
2022-12-11T05:56:17.917Z,0.80
2022-12-11T05:58:45.841Z,0.60
2022-12-11T06:01:20.887Z,0.90
2022-12-11T06:03:48.458Z,0.85
2022-12-11T06:06:15.952Z,1.00
2022-12-11T06:08:43.151Z,0.90
2022-12-11T06:11:11.977Z,1.20
2022-12-11T06:13:39.155Z,1.83
2022-12-11T06:16:07.779Z,3.35
2022-12-11T06:18:44.308Z,3.72
2022-12-11T06:21:14.425Z,3.97
2022-12-11T06:23:42.228Z,4.25
2022-12-11T06:26:12.379Z,3.50
2022-12-11T06:28:39.398Z,4.40
2022-12-11T06:31:17.274Z,3.45
2022-12-11T06:33:46.408Z,3.83
2022-12-11T06:36:17.023Z,4.55
2022-12-11T06:38:47.868Z,5.00
2022-12-11T06:41:20.200Z,5.28
2022-12-11T06:43:49.271Z,5.40
2022-12-11T06:46:20.252Z,5.32
2022-12-11T06:48:50.860Z,5.07
2022-12-11T06:51:20.065Z,4.85
2022-12-11T06:53:52.047Z,5.28
2022-12-11T06:56:19.754Z,5.30
2022-12-11T06:58:46.679Z,5.95
2022-12-11T07:01:16.453Z,6.00
2022-12-11T07:03:44.384Z,6.55
2022-12-11T07:06:12.974Z,6.05
2022-12-11T07:08:40.040Z,6.32
2022-12-11T07:11:09.533Z,6.15
2022-12-11T07:13:44.274Z,6.20
2022-12-11T07:16:15.624Z,7.70
2022-12-11T07:18:49.238Z,6.70
2022-12-11T07:21:21.377Z,6.95
2022-12-11T07:23:49.199Z,6.97
2022-12-11T07:26:21.459Z,10.95
2022-12-11T07:28:50.420Z,7.00
2022-12-11T07:31:22.430Z,7.18
2022-12-11T07:33:53.963Z,6.97
2022-12-11T07:36:24.516Z,6.60
2022-12-11T07:38:54.006Z,5.75
2022-12-11T07:41:23.371Z,6.53
2022-12-11T07:46:21.292Z,5.85
2022-12-11T07:48:49.170Z,6.20
2022-12-11T07:51:18.320Z,5.80
2022-12-11T07:53:48.775Z,5.80
2022-12-11T07:56:16.347Z,5.65
2022-12-11T07:58:44.074Z,5.75
2022-12-11T08:01:14.061Z,6.45
2022-12-11T08:03:41.137Z,5.95
2022-12-11T08:06:08.965Z,5.57
2022-12-11T08:08:35.979Z,7.28
2022-12-11T08:11:07.348Z,6.72
2022-12-11T08:13:34.333Z,6.75
2022-12-11T08:16:04.436Z,7.13
2022-12-11T08:18:31.419Z,7.30
2022-12-11T08:20:58.543Z,7.00
2022-12-11T08:23:25.528Z,7.15
2022-12-11T08:25:52.656Z,7.28
2022-12-11T08:28:23.575Z,7.60
2022-12-11T08:30:55.878Z,6.65
2022-12-11T08:33:22.794Z,6.93
2022-12-11T08:35:49.995Z,6.43
2022-12-11T08:38:19.679Z,7.25
2022-12-11T08:40:50.962Z,6.30
2022-12-11T08:43:23.839Z,5.45
2022-12-11T08:45:51.374Z,5.72
2022-12-11T08:48:18.276Z,4.57
2022-12-11T08:50:45.376Z,4.70
2022-12-11T08:53:12.472Z,4.85
2022-12-11T08:55:41.629Z,5.47
2022-12-11T08:58:08.645Z,4.35
2022-12-11T09:00:38.295Z,5.17
2022-12-11T09:03:08.473Z,5.00
2022-12-11T09:05:40.077Z,4.30
2022-12-11T09:08:07.253Z,5.97
2022-12-11T09:10:34.395Z,6.38
2022-12-11T09:13:01.306Z,7.07
2022-12-11T09:15:28.553Z,6.82
2022-12-11T09:17:56.820Z,7.45
2022-12-11T09:20:24.090Z,7.65
2022-12-11T09:22:51.071Z,6.72
2022-12-11T09:25:20.324Z,8.35
2022-12-11T09:27:47.249Z,8.13
2022-12-11T09:30:15.542Z,6.25
2022-12-11T09:32:42.439Z,6.82
2022-12-11T09:35:11.498Z,5.43
2022-12-11T09:37:39.127Z,6.13
2022-12-11T09:40:08.021Z,5.97
2022-12-11T09:42:49.655Z,5.88
2022-12-11T09:45:17.752Z,6.72
2022-12-11T09:47:50.112Z,5.70
2022-12-11T09:50:22.862Z,6.30
2022-12-11T09:53:03.678Z,6.13
2022-12-11T09:55:43.302Z,7.18
2022-12-11T09:58:20.880Z,6.13
2022-12-11T10:00:52.945Z,7.00
2022-12-11T10:03:41.014Z,6.55
2022-12-11T10:06:17.800Z,7.05
2022-12-11T10:08:53.870Z,6.32
2022-12-11T10:11:56.177Z,8.30
2022-12-11T10:14:36.393Z,6.97
2022-12-11T10:17:10.045Z,6.80
2022-12-11T10:19:37.418Z,6.95
2022-12-11T10:22:14.480Z,6.40
2022-12-11T10:27:36.009Z,6.70
2022-12-11T10:30:14.969Z,7.10
2022-12-11T10:32:51.158Z,6.30
2022-12-11T10:35:27.047Z,6.22
2022-12-11T10:38:01.576Z,6.45
2022-12-11T10:40:30.771Z,6.80
2022-12-11T10:42:58.289Z,6.70
2022-12-11T10:45:25.237Z,7.00
2022-12-11T10:48:02.574Z,7.20
2022-12-11T10:50:29.610Z,7.40
2022-12-11T10:52:58.496Z,11.60
2022-12-11T10:55:28.453Z,10.02
2022-12-11T10:58:00.546Z,8.98
2022-12-11T11:00:34.242Z,6.82
2022-12-11T11:03:02.749Z,7.32
2022-12-11T11:05:34.222Z,8.00
2022-12-11T11:08:15.211Z,6.60
2022-12-11T11:10:53.938Z,6.65
2022-12-11T11:13:23.359Z,5.03
2022-12-11T11:16:00.418Z,5.95
2022-12-11T11:18:30.329Z,5.47
2022-12-11T11:20:57.582Z,5.20
2022-12-11T11:23:27.206Z,6.75
2022-12-11T11:25:57.742Z,6.82
2022-12-11T11:28:28.529Z,6.45
2022-12-11T11:30:59.824Z,5.72
2022-12-11T11:33:31.435Z,5.90
2022-12-11T11:36:01.588Z,5.45
2022-12-11T11:38:34.479Z,4.93
2022-12-11T11:41:15.104Z,5.65
2022-12-11T11:43:46.548Z,4.30
2022-12-11T11:46:19.198Z,5.25
2022-12-11T11:48:54.054Z,6.00
2022-12-11T11:51:25.806Z,6.45
2022-12-11T11:53:58.292Z,6.30
2022-12-11T11:56:27.701Z,6.88
2022-12-11T11:59:03.180Z,7.00
2022-12-11T12:01:30.913Z,6.00
2022-12-11T12:03:58.929Z,6.10
2022-12-11T12:06:34.832Z,6.72
2022-12-11T12:09:17.770Z,6.03
2022-12-11T12:11:52.473Z,6.82
2022-12-11T12:17:22.500Z,5.82
2022-12-11T12:20:00.642Z,6.00
2022-12-11T12:22:41.658Z,5.93
2022-12-11T12:25:21.885Z,6.20
2022-12-11T12:27:59.263Z,7.85
2022-12-11T12:30:30.410Z,6.43
2022-12-11T12:33:10.866Z,5.88
2022-12-11T12:35:41.538Z,5.78
2022-12-11T12:38:17.451Z,5.82
2022-12-11T12:41:00.093Z,5.72
2022-12-11T12:43:43.527Z,6.03
2022-12-11T12:46:21.360Z,5.43
2022-12-11T12:48:51.057Z,5.35
2022-12-11T12:51:18.980Z,6.65
2022-12-11T12:53:53.878Z,8.07
2022-12-11T12:56:23.973Z,6.57
2022-12-11T12:58:50.895Z,9.23
2022-12-11T13:01:21.995Z,9.38
2022-12-11T13:03:56.567Z,7.35
2022-12-11T13:06:32.920Z,7.32
2022-12-11T13:09:12.391Z,7.18
2022-12-11T13:11:41.176Z,6.85
2022-12-11T13:14:27.062Z,7.43
2022-12-11T13:17:06.896Z,7.13
2022-12-11T13:19:40.646Z,7.30
2022-12-11T13:22:24.113Z,7.30
2022-12-11T13:24:59.796Z,7.38
2022-12-11T13:27:37.973Z,6.47
2022-12-11T13:30:07.997Z,6.43
2022-12-11T13:32:35.329Z,5.68
2022-12-11T13:35:07.581Z,6.45
2022-12-11T13:37:39.429Z,7.50
2022-12-11T13:40:10.084Z,8.25
2022-12-11T13:42:48.084Z,7.60
2022-12-11T13:45:22.002Z,7.30
2022-12-11T13:47:50.014Z,6.72
2022-12-11T13:50:24.123Z,7.13
2022-12-11T13:52:55.445Z,9.35
2022-12-11T13:55:25.303Z,7.55
2022-12-11T13:57:53.973Z,7.43
2022-12-11T14:00:23.817Z,7.68
2022-12-11T14:02:53.675Z,7.07
2022-12-11T14:05:21.575Z,8.23
2022-12-11T14:07:50.833Z,7.70
2022-12-11T14:10:22.863Z,7.05
2022-12-11T14:12:56.355Z,6.60
2022-12-11T14:15:23.883Z,6.25
2022-12-11T14:17:52.110Z,7.00
2022-12-11T14:20:21.873Z,11.57
2022-12-11T14:22:49.044Z,8.30
2022-12-11T14:25:24.911Z,6.63
2022-12-11T14:27:55.396Z,6.93
2022-12-11T14:30:24.932Z,6.82
2022-12-11T14:32:56.855Z,6.72
2022-12-11T14:35:27.781Z,6.75
2022-12-11T14:37:57.108Z,6.93
2022-12-11T14:40:28.488Z,7.32
2022-12-11T14:43:01.288Z,7.10
2022-12-11T14:45:36.214Z,7.78
2022-12-11T14:48:07.975Z,5.28
2022-12-11T14:50:44.710Z,4.88
2022-12-11T14:53:17.624Z,4.50
2022-12-11T14:55:47.223Z,4.72
2022-12-11T14:58:19.651Z,5.65
2022-12-11T15:00:57.744Z,5.10
2022-12-11T15:03:29.818Z,4.37
2022-12-11T15:05:58.330Z,4.57
2022-12-11T15:08:27.709Z,5.30
2022-12-11T15:13:30.423Z,4.55
2022-12-11T15:18:27.709Z,4.65
2022-12-11T15:20:58.923Z,5.25
2022-12-11T15:23:26.947Z,5.35
2022-12-11T15:25:56.822Z,5.10
2022-12-11T15:28:27.040Z,5.85
2022-12-11T15:30:59.102Z,5.57
2022-12-11T15:33:32.564Z,5.55
2022-12-11T15:36:03.393Z,5.80
2022-12-11T15:38:36.696Z,5.40
2022-12-11T15:41:04.567Z,5.75
2022-12-11T15:43:36.085Z,6.20
2022-12-11T15:46:05.665Z,5.25
2022-12-11T15:48:33.091Z,5.40
2022-12-11T15:51:05.799Z,5.80
2022-12-11T15:53:32.926Z,5.18
2022-12-11T15:56:00.255Z,5.97
2022-12-11T15:58:29.030Z,5.60
2022-12-11T16:00:57.405Z,4.90
2022-12-11T16:03:26.081Z,5.90
2022-12-11T16:05:53.747Z,5.97
2022-12-11T16:08:22.339Z,5.80
2022-12-11T16:10:51.477Z,6.28
2022-12-11T16:13:18.803Z,5.15
2022-12-11T16:15:47.492Z,5.82
2022-12-11T16:18:16.967Z,5.47
2022-12-11T16:23:14.334Z,6.07
2022-12-11T16:25:42.466Z,5.55
2022-12-11T16:28:12.772Z,5.95
2022-12-11T16:30:39.983Z,5.75
2022-12-11T16:33:12.326Z,6.07
2022-12-11T16:35:40.022Z,7.85
2022-12-11T16:38:10.023Z,7.72
2022-12-11T16:40:37.737Z,6.55
2022-12-11T16:43:05.480Z,6.22
2022-12-11T16:45:33.248Z,6.25
2022-12-11T16:48:04.059Z,6.13
2022-12-11T16:50:32.159Z,7.57
2022-12-11T16:52:59.493Z,7.53
2022-12-11T16:55:27.864Z,6.18
2022-12-11T16:57:55.487Z,6.43
2022-12-11T17:00:22.729Z,5.95
2022-12-11T17:02:50.084Z,6.03
2022-12-11T17:05:17.699Z,5.82
2022-12-11T17:07:45.324Z,5.10
2022-12-11T17:10:12.537Z,5.95
2022-12-11T17:12:41.215Z,5.93
2022-12-11T17:15:08.590Z,6.03
2022-12-11T17:17:35.880Z,5.80
2022-12-11T17:20:02.844Z,5.68
2022-12-11T17:22:30.117Z,6.32
2022-12-11T17:24:57.169Z,6.05
2022-12-11T17:27:24.419Z,6.20
2022-12-11T17:29:52.745Z,5.47
2022-12-11T17:32:19.977Z,5.78
2022-12-11T17:34:49.767Z,6.40
2022-12-11T17:37:17.351Z,9.63
2022-12-11T17:39:44.823Z,7.60
2022-12-11T17:42:12.050Z,7.47
2022-12-11T17:44:39.106Z,7.05
2022-12-11T17:47:10.801Z,6.50
2022-12-11T17:49:38.266Z,6.38
2022-12-11T17:52:05.439Z,6.88
2022-12-11T17:54:32.528Z,7.55
2022-12-11T17:56:59.804Z,8.13
2022-12-11T17:59:26.728Z,7.68
2022-12-11T18:01:54.184Z,7.68
2022-12-11T18:04:22.591Z,7.72
2022-12-11T18:06:49.815Z,7.88
2022-12-11T18:09:16.799Z,9.60
2022-12-11T18:11:44.124Z,9.57
2022-12-11T18:14:16.759Z,8.20
2022-12-11T18:16:44.576Z,8.25
2022-12-11T18:19:12.005Z,8.15
2022-12-11T18:21:43.695Z,8.32
2022-12-11T18:24:10.866Z,8.77
2022-12-11T18:26:38.222Z,8.20
2022-12-11T18:29:05.420Z,8.20
2022-12-11T18:31:36.306Z,7.88
2022-12-11T18:34:06.340Z,7.97
2022-12-11T18:36:34.272Z,9.10
2022-12-11T18:39:05.891Z,8.20
2022-12-11T18:41:35.831Z,8.00
2022-12-11T18:44:09.368Z,6.72
2022-12-11T18:46:37.295Z,8.00
2022-12-11T18:49:04.939Z,7.15
2022-12-11T18:51:32.076Z,7.28
2022-12-11T18:53:59.095Z,7.30
2022-12-11T18:56:27.642Z,7.90
2022-12-11T18:58:54.951Z,6.97
2022-12-11T19:01:24.249Z,7.28
2022-12-11T19:03:56.337Z,7.28
2022-12-11T19:06:30.012Z,7.32
2022-12-11T19:08:57.305Z,8.18
2022-12-11T19:11:26.389Z,7.80
2022-12-11T19:13:58.655Z,6.85
2022-12-11T19:16:29.746Z,7.38
2022-12-11T19:18:58.829Z,7.07
2022-12-11T19:21:27.188Z,7.32
2022-12-11T19:23:54.376Z,7.95
2022-12-11T19:26:23.542Z,7.65
2022-12-11T19:28:51.408Z,8.35
2022-12-11T19:31:22.731Z,9.47
2022-12-11T19:33:49.957Z,9.35
2022-12-11T19:36:20.904Z,8.38
2022-12-11T19:38:48.054Z,8.07
2022-12-11T19:41:17.673Z,8.82
2022-12-11T19:43:47.247Z,8.95
2022-12-11T19:46:15.845Z,9.10
2022-12-11T19:48:44.242Z,8.25
2022-12-11T19:51:14.213Z,7.47
2022-12-11T19:53:42.432Z,8.13
2022-12-11T19:56:10.023Z,7.43
2022-12-11T19:58:37.671Z,7.28
2022-12-11T20:01:06.000Z,7.30
2022-12-11T20:03:33.442Z,8.35
2022-12-11T20:06:03.434Z,8.15
2022-12-11T20:08:46.442Z,7.97
2022-12-11T20:11:18.359Z,8.90
2022-12-11T20:13:45.957Z,9.15
2022-12-11T20:16:13.563Z,8.32
2022-12-11T20:18:41.445Z,7.60
2022-12-11T20:21:14.495Z,7.63
2022-12-11T20:23:42.066Z,8.02
2022-12-11T20:26:10.413Z,7.30
2022-12-11T20:28:37.599Z,8.57
2022-12-11T20:31:06.374Z,7.78
2022-12-11T20:33:33.605Z,7.80
2022-12-11T20:36:00.727Z,8.63
2022-12-11T20:38:34.272Z,7.78
2022-12-11T20:41:01.948Z,8.20
2022-12-11T20:43:28.868Z,7.75
2022-12-11T20:45:56.148Z,8.20
2022-12-11T20:48:23.638Z,6.97
2022-12-11T20:50:50.919Z,7.55
2022-12-11T20:53:17.968Z,7.60
2022-12-11T20:55:46.596Z,7.40
2022-12-11T20:58:13.459Z,7.77
2022-12-11T21:00:40.779Z,7.60
2022-12-11T21:03:07.737Z,8.23
2022-12-11T21:05:39.899Z,8.15
2022-12-11T21:08:06.942Z,7.50
2022-12-11T21:10:34.834Z,7.85
2022-12-11T21:13:03.150Z,8.32
2022-12-11T21:15:30.361Z,7.45
2022-12-11T21:17:57.459Z,8.40
2022-12-11T21:20:24.642Z,8.10
2022-12-11T21:22:51.595Z,8.00
2022-12-11T21:25:19.193Z,9.13
2022-12-11T21:27:46.082Z,7.78
2022-12-11T21:30:15.206Z,8.05
2022-12-11T21:32:42.176Z,8.45
2022-12-11T21:35:10.656Z,7.78
2022-12-11T21:37:38.071Z,7.82
2022-12-11T21:40:06.427Z,6.63
2022-12-11T21:42:33.395Z,8.20
2022-12-11T21:47:49.469Z,7.78
2022-12-11T21:50:17.255Z,7.55
2022-12-11T21:52:44.518Z,7.68
2022-12-11T21:55:12.549Z,8.68
2022-12-11T21:57:39.732Z,8.10
2022-12-11T22:00:09.370Z,7.95
2022-12-11T22:02:40.787Z,15.65
2022-12-11T22:05:12.572Z,8.85
2022-12-11T22:07:39.681Z,8.90
2022-12-11T22:10:07.654Z,8.57
2022-12-11T22:12:34.504Z,8.75
2022-12-11T22:15:01.835Z,8.70
2022-12-11T22:17:28.854Z,8.35
2022-12-11T22:19:56.196Z,7.43
2022-12-11T22:22:24.479Z,8.27
2022-12-11T22:24:51.748Z,7.60
2022-12-11T22:27:23.446Z,7.47
2022-12-11T22:29:51.266Z,7.53
2022-12-11T22:32:18.172Z,7.75
2022-12-11T22:34:45.346Z,8.07
2022-12-11T22:37:12.731Z,7.50
2022-12-11T22:39:42.395Z,7.95
2022-12-11T22:42:15.733Z,7.60
2022-12-11T22:44:43.035Z,7.05
2022-12-11T22:47:09.880Z,8.43
2022-12-11T22:49:37.051Z,8.25
2022-12-11T22:52:04.468Z,7.50
2022-12-11T22:54:31.755Z,7.93
2022-12-11T22:56:59.998Z,7.75
2022-12-11T22:59:27.108Z,6.25
2022-12-11T23:01:54.076Z,7.00
2022-12-11T23:04:21.603Z,6.85
2022-12-11T23:06:48.505Z,6.60
2022-12-11T23:09:15.889Z,7.00
2022-12-11T23:11:43.461Z,6.65
2022-12-11T23:14:16.026Z,6.78
2022-12-11T23:16:44.052Z,6.70
2022-12-11T23:19:12.049Z,7.50
2022-12-11T23:21:39.265Z,6.10
2022-12-11T23:24:07.640Z,7.32
2022-12-11T23:26:34.763Z,6.82
2022-12-11T23:29:02.205Z,6.35
2022-12-11T23:31:30.770Z,7.13
2022-12-11T23:33:58.215Z,6.97
2022-12-11T23:36:26.124Z,6.72
2022-12-11T23:38:55.057Z,6.40
2022-12-11T23:41:22.984Z,6.75
2022-12-11T23:43:50.527Z,6.20
2022-12-11T23:46:20.703Z,6.32
2022-12-11T23:48:49.825Z,6.40
2022-12-11T23:51:19.021Z,5.78
2022-12-11T23:53:47.067Z,6.60
2022-12-11T23:56:16.446Z,6.35
2022-12-11T23:58:44.304Z,6.50
